createdAt,value
2022-08-05T00:00:23.964Z,3.40
2022-08-05T00:02:54.171Z,3.40
2022-08-05T00:06:01.903Z,3.13
2022-08-05T00:08:32.740Z,2.90
2022-08-05T00:11:01.520Z,3.08
2022-08-05T00:13:39.284Z,2.95
2022-08-05T00:18:44.315Z,2.50
2022-08-05T00:21:14.823Z,2.70
2022-08-05T00:23:46.657Z,2.22
2022-08-05T00:26:22.287Z,2.90
2022-08-05T00:28:50.993Z,2.83
2022-08-05T00:31:54.085Z,2.90
2022-08-05T00:34:56.204Z,3.10
2022-08-05T00:37:11.837Z,3.10
2022-08-05T00:39:57.321Z,2.90
2022-08-05T00:42:34.559Z,2.30
2022-08-05T00:45:03.394Z,2.50
2022-08-05T00:47:56.263Z,2.08
2022-08-05T00:50:20.950Z,3.45
2022-08-05T00:52:50.538Z,2.55
2022-08-05T00:55:21.464Z,2.58
2022-08-05T00:57:58.569Z,2.30
2022-08-05T01:00:27.963Z,3.08
2022-08-05T01:02:56.470Z,3.20
2022-08-05T01:05:24.951Z,3.53
2022-08-05T01:08:39.925Z,3.33
2022-08-05T01:10:52.845Z,3.63
2022-08-05T01:13:27.231Z,3.72
2022-08-05T01:16:26.107Z,3.63
2022-08-05T01:19:01.789Z,4.13
2022-08-05T01:21:58.927Z,3.67
2022-08-05T01:24:43.141Z,3.83
2022-08-05T01:27:26.970Z,4.20
2022-08-05T01:30:03.719Z,4.18
2022-08-05T01:32:34.747Z,4.10
2022-08-05T01:35:10.417Z,3.97
2022-08-05T01:37:45.218Z,4.93
2022-08-05T01:40:17.882Z,4.70
2022-08-05T01:42:47.610Z,4.32
2022-08-05T01:45:17.879Z,4.70
2022-08-05T01:47:54.333Z,4.25
2022-08-05T01:50:37.215Z,4.35
2022-08-05T01:53:12.863Z,3.78
2022-08-05T01:55:45.054Z,4.68
2022-08-05T01:58:40.536Z,4.43
2022-08-05T02:01:05.540Z,4.47
2022-08-05T02:03:40.611Z,4.47
2022-08-05T02:06:37.369Z,4.18
2022-08-05T02:08:59.353Z,3.72
2022-08-05T02:11:34.165Z,3.88
2022-08-05T02:14:12.550Z,3.67
2022-08-05T02:16:52.185Z,3.60
2022-08-05T02:19:34.274Z,3.40
2022-08-05T02:22:06.493Z,4.00
2022-08-05T02:24:38.648Z,4.15
2022-08-05T02:27:12.333Z,4.10
2022-08-05T02:29:59.849Z,4.40
2022-08-05T02:32:32.785Z,4.07
2022-08-05T02:35:13.840Z,4.38
2022-08-05T02:37:47.859Z,3.95
2022-08-05T02:40:24.309Z,4.28
2022-08-05T02:42:55.238Z,4.35
2022-08-05T02:45:25.461Z,4.28
2022-08-05T02:48:06.466Z,4.15
2022-08-05T02:50:39.250Z,4.32
2022-08-05T02:53:19.229Z,4.50
2022-08-05T02:55:53.826Z,4.50
2022-08-05T02:58:26.761Z,4.57
2022-08-05T03:00:57.538Z,5.32
2022-08-05T03:03:34.151Z,5.18
2022-08-05T03:06:56.030Z,5.22
2022-08-05T03:09:07.736Z,5.83
2022-08-05T03:11:55.420Z,6.78
2022-08-05T03:14:23.891Z,7.43
2022-08-05T03:16:54.455Z,7.32
2022-08-05T03:19:33.863Z,8.82
2022-08-05T03:22:03.240Z,9.80
2022-08-05T03:24:33.765Z,9.25
2022-08-05T03:29:45.378Z,11.43
2022-08-05T03:32:31.098Z,11.93
2022-08-05T03:35:01.024Z,11.70
2022-08-05T03:37:41.650Z,12.02
2022-08-05T03:40:31.313Z,12.77
2022-08-05T03:43:01.322Z,12.30
2022-08-05T03:45:57.386Z,12.65
2022-08-05T03:48:27.349Z,11.95
2022-08-05T03:52:37.668Z,11.93
2022-08-05T03:55:50.264Z,12.02
2022-08-05T03:56:46.569Z,12.77
2022-08-05T03:59:20.385Z,11.57
2022-08-05T04:01:52.214Z,11.75
2022-08-05T04:04:22.631Z,11.88
2022-08-05T04:06:56.693Z,12.90
2022-08-05T04:09:26.567Z,12.60
2022-08-05T04:14:30.421Z,11.40
2022-08-05T04:17:00.863Z,13.20
2022-08-05T04:19:31.275Z,14.38
2022-08-05T04:22:09.158Z,13.45
2022-08-05T04:24:44.453Z,13.48
2022-08-05T04:27:41.801Z,13.50
2022-08-05T04:30:10.276Z,13.80
2022-08-05T04:35:17.559Z,13.43
2022-08-05T04:38:00.850Z,14.75
2022-08-05T04:40:30.131Z,14.10
2022-08-05T04:42:58.050Z,14.55
2022-08-05T04:45:47.733Z,14.70
2022-08-05T04:48:18.593Z,14.65
2022-08-05T04:51:02.736Z,15.02
2022-08-05T04:53:39.588Z,16.75
2022-08-05T04:56:32.790Z,16.67
2022-08-05T04:58:57.473Z,18.15
2022-08-05T05:01:33.469Z,18.85
2022-08-05T05:04:13.703Z,18.77
2022-08-05T05:06:49.294Z,18.40
2022-08-05T05:09:21.569Z,18.92
2022-08-05T05:14:28.023Z,18.95
2022-08-05T05:17:00.497Z,18.33
2022-08-05T05:19:36.776Z,18.35
2022-08-05T05:22:24.472Z,17.80
2022-08-05T05:24:56.886Z,18.55
2022-08-05T05:27:44.376Z,18.70
2022-08-05T05:30:15.342Z,20.08
2022-08-05T05:32:56.753Z,22.27
2022-08-05T05:35:25.444Z,21.80
2022-08-05T05:38:01.828Z,22.58
2022-08-05T05:40:32.563Z,23.88
2022-08-05T05:43:02.568Z,24.30
2022-08-05T05:45:30.628Z,24.65
2022-08-05T05:48:06.410Z,25.67
2022-08-05T05:50:41.317Z,25.75
2022-08-05T05:53:21.255Z,26.35
2022-08-05T05:56:00.885Z,25.27
2022-08-05T05:58:32.441Z,24.38
2022-08-05T06:01:12.129Z,25.50
2022-08-05T06:04:00.648Z,24.70
2022-08-05T06:06:31.097Z,23.58
2022-08-05T06:09:01.153Z,22.85
2022-08-05T06:11:30.672Z,23.38
2022-08-05T06:14:00.306Z,22.50
2022-08-05T06:16:32.690Z,23.95
2022-08-05T06:19:06.949Z,23.40
2022-08-05T06:21:36.668Z,22.00
2022-08-05T06:24:07.745Z,22.58
2022-08-05T06:26:51.557Z,19.67
2022-08-05T06:32:20.876Z,16.77
2022-08-05T06:34:56.727Z,16.30
2022-08-05T06:37:52.250Z,15.73
2022-08-05T06:40:18.493Z,16.90
2022-08-05T06:42:51.955Z,15.77
2022-08-05T06:45:44.634Z,15.60
2022-08-05T06:50:58.516Z,14.73
2022-08-05T06:55:58.287Z,14.03
2022-08-05T06:58:35.361Z,13.95
2022-08-05T07:01:06.870Z,11.77
2022-08-05T07:03:35.767Z,12.02
2022-08-05T07:06:06.114Z,10.43
2022-08-05T07:08:47.928Z,11.43
2022-08-05T07:11:21.906Z,11.32
2022-08-05T07:14:20.202Z,10.90
2022-08-05T07:18:08.589Z,10.10
2022-08-05T07:20:31.427Z,10.60
2022-08-05T07:22:36.253Z,10.57
2022-08-05T07:25:23.418Z,11.60
2022-08-05T07:27:58.296Z,11.85
2022-08-05T07:30:33.986Z,11.20
2022-08-05T07:33:04.997Z,11.23
2022-08-05T07:36:04.593Z,10.80
2022-08-05T07:38:32.234Z,10.15
2022-08-05T07:42:09.069Z,9.77
2022-08-05T07:46:26.521Z,9.82
2022-08-05T07:49:02.628Z,9.35
2022-08-05T07:51:40.942Z,10.95
2022-08-05T07:54:26.209Z,9.77
2022-08-05T07:57:01.306Z,9.93
2022-08-05T07:59:42.925Z,10.13
2022-08-05T08:02:17.131Z,11.73
2022-08-05T08:04:48.277Z,14.23
2022-08-05T08:07:17.892Z,14.07
2022-08-05T08:09:46.816Z,13.85
2022-08-05T08:12:37.318Z,14.23
2022-08-05T08:15:04.844Z,14.43
2022-08-05T08:17:39.173Z,13.15
2022-08-05T08:20:42.704Z,13.65
2022-08-05T08:23:03.783Z,11.27
2022-08-05T08:26:00.350Z,11.20
2022-08-05T08:28:36.730Z,10.97
2022-08-05T08:31:06.137Z,11.52
2022-08-05T08:33:37.939Z,12.25
2022-08-05T08:38:56.853Z,10.32
2022-08-05T08:41:51.055Z,9.95
2022-08-05T08:45:20.711Z,9.15
2022-08-05T08:50:31.930Z,8.07
2022-08-05T08:52:55.871Z,8.30
2022-08-05T08:55:32.046Z,8.43
2022-08-05T08:58:13.235Z,8.35
2022-08-05T09:00:44.365Z,8.68
2022-08-05T09:03:16.219Z,8.68
2022-08-05T09:06:08.148Z,9.10
2022-08-05T09:08:40.163Z,10.63
2022-08-05T09:11:13.699Z,11.02
2022-08-05T09:14:09.517Z,11.93
2022-08-05T09:16:32.168Z,10.43
2022-08-05T09:19:00.221Z,10.45
2022-08-05T09:22:22.776Z,10.10
2022-08-05T09:24:18.002Z,6.63
2022-08-05T09:26:51.697Z,6.88
2022-08-05T09:29:20.218Z,7.50
2022-08-05T09:32:43.067Z,7.45
2022-08-05T09:34:52.597Z,7.50
2022-08-05T09:38:12.454Z,6.38
2022-08-05T09:40:30.546Z,6.80
2022-08-05T09:43:01.382Z,5.75
2022-08-05T09:48:27.102Z,6.70
2022-08-05T09:50:59.074Z,6.80
2022-08-05T09:53:54.725Z,7.30
2022-08-05T09:56:26.340Z,8.07
2022-08-05T09:58:59.161Z,7.85
2022-08-05T10:01:32.561Z,8.15
2022-08-05T10:04:04.220Z,8.35
2022-08-05T10:06:40.536Z,9.43
2022-08-05T10:12:30.073Z,8.52
2022-08-05T10:15:17.198Z,9.63
2022-08-05T10:17:54.442Z,9.27
2022-08-05T10:20:27.006Z,10.25
2022-08-05T10:22:55.984Z,9.60
2022-08-05T10:25:28.483Z,8.43
2022-08-05T10:28:12.980Z,8.43
2022-08-05T10:32:47.512Z,8.73
2022-08-05T10:33:36.081Z,9.20
2022-08-05T10:36:05.472Z,8.75
2022-08-05T10:38:35.443Z,8.43
2022-08-05T10:43:48.705Z,8.32
2022-08-05T10:46:18.908Z,8.80
2022-08-05T10:49:02.778Z,9.05
2022-08-05T10:51:53.050Z,8.52
2022-08-05T10:54:56.545Z,8.27
2022-08-05T10:57:32.067Z,7.68
2022-08-05T11:00:18.707Z,6.68
2022-08-05T11:03:25.859Z,5.80
2022-08-05T11:06:06.211Z,5.68
2022-08-05T11:08:39.247Z,5.53
2022-08-05T11:11:44.608Z,5.75
2022-08-05T11:14:57.861Z,5.65
2022-08-05T11:17:56.777Z,5.22
2022-08-05T11:20:34.523Z,5.55
2022-08-05T11:23:33.725Z,4.50
2022-08-05T11:26:28.207Z,5.68
2022-08-05T11:28:59.402Z,5.63
2022-08-05T11:31:57.147Z,5.10
2022-08-05T11:34:37.857Z,5.28
2022-08-05T11:38:28.728Z,5.40
2022-08-05T11:40:00.626Z,5.75
2022-08-05T11:42:40.560Z,5.63
2022-08-05T11:45:14.232Z,5.90
2022-08-05T11:47:56.262Z,5.35
2022-08-05T11:50:25.749Z,5.18
2022-08-05T11:52:57.749Z,4.82
2022-08-05T11:55:31.563Z,4.95
2022-08-05T11:58:09.677Z,4.40
2022-08-05T12:00:41.567Z,3.60
2022-08-05T12:03:29.309Z,3.95
2022-08-05T12:06:02.696Z,3.90
2022-08-05T12:08:32.839Z,3.80
2022-08-05T12:11:06.007Z,3.78
2022-08-05T12:13:49.684Z,3.97
2022-08-05T12:16:25.717Z,4.28
2022-08-05T12:18:57.058Z,4.35
2022-08-05T12:21:30.187Z,3.85
2022-08-05T12:24:04.921Z,4.10
2022-08-05T12:26:34.560Z,4.07
2022-08-05T12:29:03.550Z,3.90
2022-08-05T12:31:42.399Z,3.50
2022-08-05T12:34:21.569Z,4.07
2022-08-05T12:36:53.707Z,4.03
2022-08-05T12:39:23.490Z,4.03
2022-08-05T12:41:59.516Z,3.85
2022-08-05T12:44:33.220Z,4.18
2022-08-05T12:47:03.717Z,3.60
2022-08-05T12:50:04.747Z,3.38
2022-08-05T12:52:41.668Z,3.33
2022-08-05T12:55:23.632Z,3.60
2022-08-05T12:58:50.934Z,3.00
2022-08-05T13:01:59.951Z,2.97
2022-08-05T13:03:33.514Z,2.70
2022-08-05T13:06:03.199Z,2.90
2022-08-05T13:08:32.822Z,2.72
2022-08-05T13:14:04.840Z,2.78
2022-08-05T13:16:20.255Z,2.60
2022-08-05T13:18:52.969Z,2.25
2022-08-05T13:21:27.726Z,2.33
2022-08-05T13:26:33.659Z,2.28
2022-08-05T13:29:01.914Z,1.92
2022-08-05T13:31:34.018Z,2.00
2022-08-05T13:34:22.858Z,2.17
2022-08-05T13:36:55.081Z,1.90
2022-08-05T13:40:12.861Z,2.20
2022-08-05T13:42:15.020Z,2.38
2022-08-05T13:44:45.703Z,1.85
2022-08-05T13:47:34.557Z,2.47
2022-08-05T13:50:04.480Z,2.50
2022-08-05T13:52:35.574Z,2.50
2022-08-05T13:55:07.915Z,2.40
2022-08-05T13:57:48.757Z,2.40
2022-08-05T14:00:27.477Z,2.58
2022-08-05T14:02:56.830Z,2.10
2022-08-05T14:05:48.084Z,2.17
2022-08-05T14:08:20.052Z,1.88
2022-08-05T14:10:49.761Z,2.08
2022-08-05T14:13:17.748Z,2.10
2022-08-05T14:16:04.935Z,2.33
2022-08-05T14:18:38.018Z,2.28
2022-08-05T14:22:07.491Z,1.85
2022-08-05T14:23:55.870Z,2.10
2022-08-05T14:26:36.995Z,2.00
2022-08-05T14:29:16.173Z,1.88
2022-08-05T14:32:02.505Z,1.63
2022-08-05T14:34:35.652Z,1.58
2022-08-05T14:37:04.683Z,1.20
2022-08-05T14:39:49.637Z,1.33
2022-08-05T14:42:23.331Z,1.25
2022-08-05T14:44:53.248Z,1.23
2022-08-05T14:47:58.364Z,1.45
2022-08-05T14:50:18.359Z,1.20
2022-08-05T14:52:53.479Z,1.23
2022-08-05T14:55:38.501Z,1.30
2022-08-05T14:58:10.912Z,1.50
2022-08-05T15:00:58.459Z,1.27
2022-08-05T15:03:33.092Z,1.23
2022-08-05T15:06:07.314Z,1.50
2022-08-05T15:08:58.075Z,1.42
2022-08-05T15:11:51.372Z,1.90
2022-08-05T15:14:33.641Z,1.70
2022-08-05T15:17:05.469Z,1.58
2022-08-05T15:19:49.137Z,1.88
2022-08-05T15:22:21.542Z,1.52
2022-08-05T15:24:49.501Z,2.20
2022-08-05T15:27:19.825Z,1.80
2022-08-05T15:29:48.038Z,1.55
2022-08-05T15:32:17.092Z,1.70
2022-08-05T15:34:45.076Z,1.63
2022-08-05T15:37:14.837Z,1.70
2022-08-05T15:41:01.187Z,1.60
2022-08-05T15:42:55.643Z,1.17
2022-08-05T15:45:37.990Z,1.60
2022-08-05T15:48:07.161Z,1.40
2022-08-05T15:50:35.270Z,1.58
2022-08-05T15:53:05.227Z,1.15
2022-08-05T15:56:03.955Z,1.55
2022-08-05T15:58:23.452Z,1.85
2022-08-05T16:01:11.606Z,1.50
2022-08-05T16:03:41.155Z,1.63
2022-08-05T16:06:11.408Z,1.70
2022-08-05T16:08:39.967Z,1.10
2022-08-05T16:11:08.573Z,0.90
2022-08-05T16:13:38.151Z,0.88
2022-08-05T16:18:34.413Z,0.90
2022-08-05T16:21:04.354Z,0.90
2022-08-05T16:23:54.193Z,1.00
2022-08-05T16:26:26.370Z,0.80
2022-08-05T16:28:56.571Z,0.60
2022-08-05T16:31:24.994Z,0.50
2022-08-05T16:33:53.712Z,0.52
2022-08-05T16:36:24.010Z,0.43
2022-08-05T16:38:55.569Z,0.45
2022-08-05T16:42:14.563Z,0.60
2022-08-05T16:44:15.401Z,0.50
2022-08-05T16:46:55.871Z,0.60
2022-08-05T16:49:26.344Z,0.47
2022-08-05T16:51:56.892Z,0.50
2022-08-05T16:54:29.010Z,0.55
2022-08-05T16:57:01.575Z,0.20
2022-08-05T16:59:31.610Z,0.30
2022-08-05T17:02:00.862Z,0.40
2022-08-05T17:04:29.239Z,0.40
2022-08-05T17:07:01.053Z,0.50
2022-08-05T17:09:30.066Z,0.38
2022-08-05T17:11:59.379Z,0.30
2022-08-05T17:14:34.307Z,0.52
2022-08-05T17:17:14.460Z,0.22
2022-08-05T17:19:45.503Z,0.30
2022-08-05T17:22:17.746Z,0.52
2022-08-05T17:24:57.525Z,0.50
2022-08-05T17:27:27.411Z,0.55
2022-08-05T17:30:02.448Z,0.30
2022-08-05T17:32:33.819Z,0.67
2022-08-05T17:35:03.278Z,0.50
2022-08-05T17:37:40.788Z,0.40
2022-08-05T17:40:15.429Z,0.40
2022-08-05T17:42:50.526Z,0.57
2022-08-05T17:45:21.806Z,0.40
2022-08-05T17:47:55.306Z,0.45
2022-08-05T17:50:28.327Z,0.80
2022-08-05T17:53:01.383Z,0.77
2022-08-05T17:55:37.199Z,0.60
2022-08-05T17:58:09.570Z,0.85
2022-08-05T18:00:40.914Z,0.85
2022-08-05T18:03:27.993Z,1.00
2022-08-05T18:06:04.905Z,0.70
2022-08-05T18:08:33.880Z,1.00
2022-08-05T18:11:03.283Z,0.70
2022-08-05T18:13:36.911Z,0.60
2022-08-05T18:16:14.505Z,1.25
2022-08-05T18:18:50.227Z,0.80
2022-08-05T18:21:21.239Z,0.80
2022-08-05T18:23:53.681Z,0.85
2022-08-05T18:26:29.313Z,0.80
2022-08-05T18:29:00.007Z,0.50
2022-08-05T18:31:32.951Z,0.80
2022-08-05T18:34:05.988Z,0.70
2022-08-05T18:36:36.386Z,0.70
2022-08-05T18:39:06.504Z,0.70
2022-08-05T18:42:00.750Z,0.70
2022-08-05T18:44:35.124Z,0.50
2022-08-05T18:47:15.753Z,0.60
2022-08-05T18:50:10.696Z,0.80
2022-08-05T18:52:41.779Z,0.60
2022-08-05T18:55:22.411Z,0.60
2022-08-05T18:57:53.369Z,0.45
2022-08-05T19:00:28.693Z,0.60
2022-08-05T19:03:03.759Z,0.82
2022-08-05T19:06:11.285Z,0.65
2022-08-05T19:08:30.549Z,0.70
2022-08-05T19:11:04.621Z,0.65
2022-08-05T19:13:35.619Z,0.70
2022-08-05T19:16:25.324Z,1.10
2022-08-05T19:18:56.806Z,0.70
2022-08-05T19:21:29.533Z,0.77
2022-08-05T19:24:05.634Z,0.77
2022-08-05T19:26:43.899Z,0.60
2022-08-05T19:29:26.633Z,0.73
2022-08-05T19:32:03.746Z,0.70
2022-08-05T19:34:32.605Z,0.70
2022-08-05T19:37:02.116Z,0.80
2022-08-05T19:39:31.939Z,0.80
2022-08-05T19:42:15.326Z,0.70
2022-08-05T19:44:45.192Z,0.80
2022-08-05T19:47:16.145Z,1.08
2022-08-05T19:49:45.185Z,0.80
2022-08-05T19:52:31.533Z,1.00
2022-08-05T19:55:07.074Z,0.75
2022-08-05T19:58:10.396Z,1.20
2022-08-05T20:00:38.271Z,1.25
2022-08-05T20:03:08.533Z,1.10
2022-08-05T20:05:43.200Z,0.98
2022-08-05T20:08:19.194Z,1.10
2022-08-05T20:10:49.763Z,1.25
2022-08-05T20:13:18.187Z,1.02
2022-08-05T20:15:59.760Z,0.90
2022-08-05T20:18:32.718Z,1.00
2022-08-05T20:21:02.192Z,0.93
2022-08-05T20:23:39.703Z,0.88
2022-08-05T20:26:18.962Z,1.00
2022-08-05T20:28:48.605Z,1.25
2022-08-05T20:31:17.780Z,1.27
2022-08-05T20:33:50.197Z,2.00
2022-08-05T20:36:19.048Z,2.00
2022-08-05T20:38:54.176Z,1.63
2022-08-05T20:41:43.204Z,1.50
2022-08-05T20:44:18.649Z,1.00
2022-08-05T20:46:57.834Z,0.95
2022-08-05T20:49:26.259Z,0.90
2022-08-05T20:51:54.929Z,0.80
2022-08-05T20:54:25.387Z,0.95
2022-08-05T20:56:53.492Z,0.98
2022-08-05T20:59:26.968Z,0.85
2022-08-05T21:02:10.074Z,0.80
2022-08-05T21:04:39.112Z,0.68
2022-08-05T21:07:08.977Z,0.90
2022-08-05T21:09:38.520Z,0.90
2022-08-05T21:12:21.703Z,0.90
2022-08-05T21:14:54.751Z,1.00
2022-08-05T21:17:25.722Z,0.90
2022-08-05T21:19:56.487Z,1.00
2022-08-05T21:22:26.880Z,1.10
2022-08-05T21:24:57.775Z,0.98
2022-08-05T21:27:27.457Z,0.88
2022-08-05T21:32:27.171Z,0.90
2022-08-05T21:35:18.027Z,1.10
2022-08-05T21:37:52.927Z,0.90
2022-08-05T21:40:23.389Z,0.90
2022-08-05T21:45:24.718Z,1.50
2022-08-05T21:47:57.741Z,1.35
2022-08-05T21:50:26.555Z,1.33
2022-08-05T21:52:58.923Z,1.27
2022-08-05T21:55:43.107Z,1.23
2022-08-05T21:58:24.965Z,1.20
2022-08-05T22:01:00.879Z,1.08
2022-08-05T22:03:52.543Z,1.40
2022-08-05T22:06:22.443Z,1.10
2022-08-05T22:08:52.006Z,1.05
2022-08-05T22:11:35.549Z,1.10
2022-08-05T22:14:33.200Z,1.00
2022-08-05T22:16:53.061Z,1.00
2022-08-05T22:20:03.033Z,1.00
2022-08-05T22:22:15.527Z,1.08
2022-08-05T22:28:05.061Z,1.20
2022-08-05T22:30:35.162Z,1.20
2022-08-05T22:33:15.882Z,0.90
2022-08-05T22:38:18.862Z,1.00
2022-08-05T22:40:49.642Z,1.20
2022-08-05T22:43:36.593Z,1.63
2022-08-05T22:46:12.265Z,1.35
2022-08-05T22:48:51.562Z,1.60
2022-08-05T22:51:23.198Z,1.40
2022-08-05T22:54:07.813Z,1.20
2022-08-05T22:56:35.850Z,1.15
2022-08-05T22:59:45.458Z,1.17
2022-08-05T23:02:05.959Z,1.10
2022-08-05T23:04:36.501Z,1.20
2022-08-05T23:09:57.826Z,1.20
2022-08-05T23:12:24.463Z,1.13
2022-08-05T23:14:53.951Z,1.25
2022-08-05T23:17:34.902Z,1.55
2022-08-05T23:20:16.735Z,1.30
2022-08-05T23:22:47.612Z,1.13
2022-08-05T23:25:52.910Z,0.95
2022-08-05T23:28:07.038Z,1.05
2022-08-05T23:30:40.437Z,1.20
2022-08-05T23:33:22.377Z,1.10
2022-08-05T23:36:01.337Z,1.27
2022-08-05T23:38:29.450Z,1.08
2022-08-05T23:40:57.721Z,0.98
2022-08-05T23:43:37.389Z,1.25
2022-08-05T23:46:20.087Z,1.02
2022-08-05T23:49:00.304Z,1.08
2022-08-05T23:51:51.723Z,1.20
2022-08-05T23:54:25.878Z,1.17
2022-08-05T23:57:03.494Z,1.10
